createdAt,value
2022-09-21T00:01:43.940Z,12.70
2022-09-21T00:04:12.508Z,12.60
2022-09-21T00:06:42.735Z,12.60
2022-09-21T00:09:11.482Z,12.60
2022-09-21T00:11:40.134Z,12.60
2022-09-21T00:14:12.262Z,12.50
2022-09-21T00:16:41.914Z,12.50
2022-09-21T00:19:11.996Z,12.50
2022-09-21T00:21:42.292Z,12.60
2022-09-21T00:24:11.070Z,12.60
2022-09-21T00:26:39.823Z,12.60
2022-09-21T00:29:08.405Z,12.60
2022-09-21T00:31:37.161Z,12.60
2022-09-21T00:34:07.949Z,12.60
2022-09-21T00:36:37.164Z,12.60
2022-09-21T00:39:07.063Z,12.60
2022-09-21T00:41:36.405Z,12.60
2022-09-21T00:44:26.270Z,12.60
2022-09-21T00:46:57.761Z,12.60
2022-09-21T00:49:27.999Z,12.60
2022-09-21T00:51:58.576Z,12.60
2022-09-21T00:54:33.693Z,12.60
2022-09-21T00:57:03.749Z,12.60
2022-09-21T00:59:33.581Z,12.60
2022-09-21T01:02:02.235Z,12.60
2022-09-21T01:04:31.776Z,12.50
2022-09-21T01:07:04.219Z,12.50
2022-09-21T01:09:35.045Z,12.60
2022-09-21T01:12:18.514Z,12.50
2022-09-21T01:15:00.418Z,12.50
2022-09-21T01:17:37.311Z,12.60
2022-09-21T01:20:43.240Z,12.50
2022-09-21T01:23:33.661Z,12.50
2022-09-21T01:26:12.883Z,12.60
2022-09-21T01:29:10.844Z,12.50
2022-09-21T01:31:43.406Z,12.50
2022-09-21T01:34:16.547Z,12.50
2022-09-21T01:36:48.574Z,12.50
2022-09-21T01:39:20.786Z,12.50
2022-09-21T01:41:52.049Z,12.50
2022-09-21T01:44:24.986Z,12.50
2022-09-21T01:46:54.936Z,12.50
2022-09-21T01:49:27.036Z,12.50
2022-09-21T01:51:59.768Z,12.50
2022-09-21T01:54:33.636Z,12.40
2022-09-21T01:57:07.393Z,12.40
2022-09-21T01:59:48.791Z,12.40
2022-09-21T02:02:21.867Z,12.30
2022-09-21T02:04:51.126Z,12.30
2022-09-21T02:07:20.607Z,12.20
2022-09-21T02:09:49.656Z,12.20
2022-09-21T02:12:19.367Z,12.10
2022-09-21T02:14:51.256Z,12.00
2022-09-21T02:17:35.127Z,11.90
2022-09-21T02:20:17.581Z,11.90
2022-09-21T02:22:57.970Z,11.80
2022-09-21T02:25:38.272Z,11.80
2022-09-21T02:28:13.376Z,11.70
2022-09-21T02:30:50.777Z,11.60
2022-09-21T02:33:26.036Z,11.60
2022-09-21T02:36:02.102Z,11.50
2022-09-21T02:38:38.111Z,11.50
2022-09-21T02:41:13.044Z,11.40
2022-09-21T02:43:45.563Z,11.30
2022-09-21T02:46:19.008Z,11.30
2022-09-21T02:48:50.471Z,11.30
2022-09-21T02:51:22.176Z,11.30
2022-09-21T02:53:53.106Z,11.20
2022-09-21T02:56:22.805Z,11.20
2022-09-21T02:58:56.897Z,11.10
2022-09-21T03:01:28.095Z,11.10
2022-09-21T03:03:56.468Z,11.10
2022-09-21T03:06:24.929Z,11.00
2022-09-21T03:08:53.657Z,11.00
2022-09-21T03:11:22.402Z,11.00
2022-09-21T03:13:50.892Z,10.90
2022-09-21T03:16:20.206Z,10.90
2022-09-21T03:18:50.211Z,10.80
2022-09-21T03:21:18.791Z,10.80
2022-09-21T03:23:47.404Z,10.80
2022-09-21T03:26:15.694Z,10.80
2022-09-21T03:28:44.263Z,10.80
2022-09-21T03:31:13.028Z,10.80
2022-09-21T03:33:41.386Z,10.80
2022-09-21T03:36:11.560Z,10.80
2022-09-21T03:38:40.266Z,10.80
2022-09-21T03:41:08.709Z,10.80
2022-09-21T03:43:37.112Z,10.80
2022-09-21T03:46:06.009Z,10.70
2022-09-21T03:48:34.579Z,10.70
2022-09-21T03:51:03.084Z,10.60
2022-09-21T03:53:33.363Z,10.60
2022-09-21T03:56:02.290Z,10.60
2022-09-21T03:58:30.835Z,10.50
2022-09-21T04:01:03.830Z,10.50
2022-09-21T04:03:32.713Z,10.40
2022-09-21T04:06:01.754Z,10.30
2022-09-21T04:08:33.357Z,10.30
2022-09-21T04:11:09.994Z,10.20
2022-09-21T04:13:38.486Z,10.20
2022-09-21T04:16:07.266Z,10.10
2022-09-21T04:18:35.702Z,10.10
2022-09-21T04:21:04.060Z,10.00
2022-09-21T04:23:33.888Z,10.00
2022-09-21T04:26:03.955Z,10.00
2022-09-21T04:28:32.897Z,10.00
2022-09-21T04:31:01.566Z,10.10
2022-09-21T04:33:31.037Z,10.10
2022-09-21T04:35:59.490Z,10.20
2022-09-21T04:38:28.093Z,10.20
2022-09-21T04:40:57.344Z,10.30
2022-09-21T04:43:27.620Z,10.30
2022-09-21T04:45:56.279Z,10.40
2022-09-21T04:48:24.784Z,10.50
2022-09-21T04:50:53.120Z,10.50
2022-09-21T04:53:21.617Z,10.60
2022-09-21T04:55:50.313Z,10.60
2022-09-21T04:58:23.740Z,10.70
2022-09-21T05:00:56.699Z,10.70
2022-09-21T05:03:26.637Z,10.80
2022-09-21T05:05:56.876Z,10.90
2022-09-21T05:08:40.787Z,10.90
2022-09-21T05:11:13.787Z,11.00
2022-09-21T05:13:42.353Z,11.00
2022-09-21T05:16:12.424Z,11.10
2022-09-21T05:18:40.977Z,11.20
2022-09-21T05:21:10.673Z,11.30
2022-09-21T05:23:39.390Z,11.50
2022-09-21T05:26:08.555Z,11.50
2022-09-21T05:28:40.091Z,11.60
2022-09-21T05:31:23.426Z,11.70
2022-09-21T05:33:55.655Z,11.90
2022-09-21T05:36:41.200Z,11.90
2022-09-21T05:39:10.030Z,12.00
2022-09-21T05:41:39.293Z,12.10
2022-09-21T05:44:08.525Z,12.20
2022-09-21T05:46:40.970Z,12.30
2022-09-21T05:49:18.446Z,12.40
2022-09-21T05:51:57.694Z,12.50
2022-09-21T05:54:39.076Z,12.70
2022-09-21T05:57:14.899Z,12.80
2022-09-21T05:59:56.513Z,12.90
2022-09-21T06:02:42.706Z,13.00
2022-09-21T06:05:13.031Z,13.10
2022-09-21T06:07:41.553Z,13.20
2022-09-21T06:10:11.188Z,13.30
2022-09-21T06:12:39.977Z,13.40
2022-09-21T06:15:12.206Z,13.50
2022-09-21T06:17:42.677Z,13.50
2022-09-21T06:20:11.455Z,13.60
2022-09-21T06:22:39.843Z,13.60
2022-09-21T06:25:09.036Z,13.70
2022-09-21T06:27:37.382Z,13.60
2022-09-21T06:30:06.996Z,13.70
2022-09-21T06:32:35.605Z,13.70
2022-09-21T06:35:05.745Z,13.80
2022-09-21T06:37:34.026Z,13.80
2022-09-21T06:40:02.807Z,13.80
2022-09-21T06:42:31.380Z,13.90
2022-09-21T06:44:59.927Z,14.10
2022-09-21T06:47:28.487Z,14.60
2022-09-21T06:49:57.038Z,15.30
2022-09-21T06:52:27.078Z,15.70
2022-09-21T06:54:55.399Z,16.00
2022-09-21T06:57:23.939Z,16.10
2022-09-21T06:59:52.455Z,16.30
2022-09-21T07:02:21.243Z,16.40
2022-09-21T07:04:49.771Z,16.50
2022-09-21T07:07:18.313Z,16.80
2022-09-21T07:12:37.284Z,17.80
2022-09-21T07:15:07.879Z,18.40
2022-09-21T07:17:37.992Z,18.90
2022-09-21T07:20:08.896Z,19.20
2022-09-21T07:22:37.989Z,19.60
2022-09-21T07:25:08.256Z,20.00
2022-09-21T07:27:36.774Z,20.30
2022-09-21T07:30:06.488Z,20.20
2022-09-21T07:32:35.055Z,19.90
2022-09-21T07:35:04.319Z,19.50
2022-09-21T07:37:33.359Z,19.30
2022-09-21T07:40:05.281Z,19.30
2022-09-21T07:42:35.580Z,19.50
2022-09-21T07:45:04.780Z,19.90
2022-09-21T07:47:33.502Z,20.30
2022-09-21T07:50:02.226Z,20.60
2022-09-21T07:52:30.588Z,20.80
2022-09-21T07:54:59.145Z,20.80
2022-09-21T07:57:45.797Z,21.00
2022-09-21T08:00:16.225Z,21.10
2022-09-21T08:02:47.638Z,21.30
2022-09-21T08:05:16.788Z,21.50
2022-09-21T08:07:45.170Z,21.60
2022-09-21T08:10:13.658Z,21.60
2022-09-21T08:12:43.938Z,21.60
2022-09-21T08:15:37.056Z,21.70
2022-09-21T08:18:07.206Z,21.80
2022-09-21T08:20:35.806Z,21.90
2022-09-21T08:23:05.072Z,21.80
2022-09-21T08:25:34.408Z,21.60
2022-09-21T08:28:07.348Z,21.40
2022-09-21T08:30:38.194Z,21.20
2022-09-21T08:33:08.290Z,20.90
2022-09-21T08:35:37.441Z,20.70
2022-09-21T08:38:06.353Z,20.50
2022-09-21T08:40:35.401Z,20.40
2022-09-21T08:43:08.997Z,20.10
2022-09-21T08:45:43.729Z,20.00
2022-09-21T08:48:19.715Z,19.80
2022-09-21T08:50:55.172Z,19.70
2022-09-21T08:53:27.975Z,19.50
2022-09-21T08:55:57.791Z,19.30
2022-09-21T08:58:28.585Z,19.10
2022-09-21T09:01:10.266Z,19.00
2022-09-21T09:04:17.746Z,18.90
2022-09-21T09:06:53.656Z,18.70
2022-09-21T09:09:40.994Z,18.50
2022-09-21T09:12:22.578Z,18.40
2022-09-21T09:15:07.747Z,18.20
2022-09-21T09:17:48.528Z,18.00
2022-09-21T09:20:20.694Z,18.00
2022-09-21T09:23:00.929Z,17.90
2022-09-21T09:25:36.422Z,18.00
2022-09-21T09:28:17.207Z,18.10
2022-09-21T09:30:56.852Z,18.30
2022-09-21T09:33:28.788Z,18.50
2022-09-21T09:36:03.202Z,18.50
2022-09-21T09:38:38.396Z,18.60
2022-09-21T09:41:23.461Z,18.50
2022-09-21T09:44:05.827Z,18.50
2022-09-21T09:46:47.096Z,18.40
2022-09-21T09:49:26.133Z,18.40
2022-09-21T09:51:54.823Z,18.40
2022-09-21T09:54:27.879Z,18.50
2022-09-21T09:56:56.424Z,18.50
2022-09-21T09:59:31.574Z,18.70
2022-09-21T10:02:03.143Z,18.80
2022-09-21T10:04:31.833Z,19.00
2022-09-21T10:07:00.134Z,19.20
2022-09-21T10:09:32.850Z,19.50
2022-09-21T10:12:09.478Z,19.70
2022-09-21T10:14:39.175Z,19.70
2022-09-21T10:17:09.342Z,19.50
2022-09-21T10:19:38.257Z,19.20
2022-09-21T10:22:07.309Z,18.70
2022-09-21T10:24:40.725Z,18.30
2022-09-21T10:27:15.417Z,17.80
2022-09-21T10:29:46.105Z,17.30
2022-09-21T10:32:26.848Z,16.90
2022-09-21T10:35:13.622Z,16.50
2022-09-21T10:37:43.665Z,16.10
2022-09-21T10:40:36.620Z,15.80
2022-09-21T10:43:05.725Z,15.70
2022-09-21T10:45:38.139Z,15.60
2022-09-21T10:48:14.534Z,15.60
2022-09-21T10:50:45.653Z,15.60
2022-09-21T10:53:21.027Z,15.70
2022-09-21T10:56:14.497Z,15.80
2022-09-21T10:59:12.812Z,15.90
2022-09-21T11:01:45.974Z,16.00
2022-09-21T11:04:20.653Z,16.00
2022-09-21T11:06:52.687Z,16.10
2022-09-21T11:09:26.511Z,16.30
2022-09-21T11:12:00.886Z,16.40
2022-09-21T11:14:42.338Z,16.50
2022-09-21T11:17:15.073Z,16.50
2022-09-21T11:19:49.751Z,16.50
2022-09-21T11:22:25.807Z,16.50
2022-09-21T11:25:01.561Z,16.50
2022-09-21T11:27:36.335Z,16.40
2022-09-21T11:30:11.330Z,16.50
2022-09-21T11:32:59.595Z,16.60
2022-09-21T11:35:47.434Z,16.80
2022-09-21T11:38:30.999Z,16.80
2022-09-21T11:41:28.545Z,17.00
2022-09-21T11:44:24.963Z,17.10
2022-09-21T11:47:05.604Z,17.20
2022-09-21T11:50:26.434Z,17.40
2022-09-21T11:53:07.936Z,17.50
2022-09-21T11:55:52.867Z,17.40
2022-09-21T11:58:29.643Z,17.40
2022-09-21T12:01:09.406Z,17.20
2022-09-21T12:03:53.863Z,17.10
2022-09-21T12:06:44.643Z,16.90
2022-09-21T12:09:53.719Z,16.80
2022-09-21T12:12:26.000Z,16.70
2022-09-21T12:15:00.032Z,16.60
2022-09-21T12:17:39.553Z,16.60
2022-09-21T12:20:17.630Z,16.60
2022-09-21T12:22:47.912Z,16.60
2022-09-21T12:25:19.758Z,16.70
2022-09-21T12:27:51.778Z,16.80
2022-09-21T12:30:22.309Z,17.00
2022-09-21T12:33:00.050Z,17.00
2022-09-21T12:35:35.593Z,17.10
2022-09-21T12:38:12.009Z,17.10
2022-09-21T12:40:49.985Z,17.30
2022-09-21T12:43:30.107Z,17.30
2022-09-21T12:46:02.879Z,17.50
2022-09-21T12:48:36.589Z,17.50
2022-09-21T12:51:13.421Z,17.60
2022-09-21T12:53:50.772Z,17.70
2022-09-21T12:56:33.853Z,17.70
2022-09-21T12:59:14.777Z,17.70
2022-09-21T13:01:52.241Z,17.70
2022-09-21T13:04:38.809Z,17.70
2022-09-21T13:07:34.446Z,17.70
2022-09-21T13:10:15.427Z,17.70
2022-09-21T13:12:46.322Z,17.70
2022-09-21T13:15:18.518Z,17.80
2022-09-21T13:17:47.280Z,17.70
2022-09-21T13:20:22.543Z,17.70
2022-09-21T13:23:00.830Z,17.60
2022-09-21T13:25:31.305Z,17.50
2022-09-21T13:28:19.823Z,17.40
2022-09-21T13:30:50.179Z,17.30
2022-09-21T13:33:39.036Z,17.20
2022-09-21T13:36:34.143Z,17.20
2022-09-21T13:39:18.181Z,17.10
2022-09-21T13:42:03.922Z,17.00
2022-09-21T13:44:46.404Z,17.00
2022-09-21T13:47:15.449Z,17.10
2022-09-21T13:49:54.859Z,17.10
2022-09-21T13:52:40.393Z,17.20
2022-09-21T13:55:29.240Z,17.30
2022-09-21T13:58:04.815Z,17.40
2022-09-21T14:00:40.972Z,17.50
2022-09-21T14:03:23.133Z,17.40
2022-09-21T14:05:54.612Z,17.30
2022-09-21T14:08:31.799Z,17.20
2022-09-21T14:11:03.234Z,17.10
2022-09-21T14:13:35.712Z,16.90
2022-09-21T14:16:51.845Z,16.80
2022-09-21T14:20:09.519Z,16.60
2022-09-21T14:22:41.123Z,16.50
2022-09-21T14:25:49.217Z,16.40
2022-09-21T14:28:19.732Z,16.30
2022-09-21T14:30:55.593Z,16.20
2022-09-21T14:33:33.233Z,16.20
2022-09-21T14:36:07.834Z,16.20
2022-09-21T14:38:55.816Z,16.10
2022-09-21T14:41:31.397Z,16.20
2022-09-21T14:44:01.139Z,16.20
2022-09-21T14:46:55.680Z,16.30
2022-09-21T14:49:48.813Z,16.40
2022-09-21T14:52:32.423Z,16.40
2022-09-21T14:55:10.738Z,16.40
2022-09-21T14:58:00.881Z,16.30
2022-09-21T15:00:39.782Z,16.30
2022-09-21T15:03:46.645Z,16.30
2022-09-21T15:06:41.189Z,16.20
2022-09-21T15:09:47.288Z,16.10
2022-09-21T15:12:19.980Z,16.10
2022-09-21T15:14:58.377Z,16.10
2022-09-21T15:17:30.001Z,16.10
2022-09-21T15:20:03.628Z,16.00
2022-09-21T15:22:32.598Z,16.00
2022-09-21T15:25:06.020Z,15.90
2022-09-21T15:27:36.220Z,15.90
2022-09-21T15:30:08.066Z,15.90
2022-09-21T15:32:41.784Z,15.90
2022-09-21T15:35:20.026Z,15.80
2022-09-21T15:37:50.025Z,15.80
2022-09-21T15:40:21.781Z,15.80
2022-09-21T15:43:01.524Z,15.80
2022-09-21T15:45:34.701Z,15.70
2022-09-21T15:48:04.328Z,15.70
2022-09-21T15:50:33.432Z,15.60
2022-09-21T15:53:06.758Z,15.60
2022-09-21T15:55:35.298Z,15.50
2022-09-21T15:58:04.381Z,15.50
2022-09-21T16:00:38.764Z,15.50
2022-09-21T16:03:09.830Z,15.40
2022-09-21T16:05:47.011Z,15.40
2022-09-21T16:08:31.124Z,15.40
2022-09-21T16:11:18.980Z,15.40
2022-09-21T16:14:06.180Z,15.30
2022-09-21T16:17:06.639Z,15.30
2022-09-21T16:19:46.145Z,15.20
2022-09-21T16:22:17.621Z,15.20
2022-09-21T16:24:50.486Z,15.20
2022-09-21T16:27:21.237Z,15.10
2022-09-21T16:29:51.787Z,15.10
2022-09-21T16:32:33.448Z,15.10
2022-09-21T16:35:25.304Z,15.10
2022-09-21T16:37:57.528Z,15.10
2022-09-21T16:40:27.039Z,15.10
2022-09-21T16:42:55.867Z,15.10
2022-09-21T16:45:29.685Z,15.00
2022-09-21T16:47:59.876Z,15.00
2022-09-21T16:50:28.466Z,15.00
2022-09-21T16:52:56.760Z,14.90
2022-09-21T16:55:28.891Z,14.90
2022-09-21T16:58:00.248Z,14.80
2022-09-21T17:00:32.957Z,14.80
2022-09-21T17:03:02.766Z,14.80
2022-09-21T17:05:31.559Z,14.70
2022-09-21T17:08:00.842Z,14.70
2022-09-21T17:10:32.963Z,14.70
2022-09-21T17:13:05.806Z,14.60
2022-09-21T17:15:35.966Z,14.50
2022-09-21T17:18:06.454Z,14.40
2022-09-21T17:20:36.954Z,14.40
2022-09-21T17:23:06.063Z,14.20
2022-09-21T17:25:36.110Z,14.20
2022-09-21T17:28:12.458Z,14.10
2022-09-21T17:30:41.624Z,14.00
2022-09-21T17:33:11.978Z,13.90
2022-09-21T17:35:42.139Z,13.90
2022-09-21T17:38:14.304Z,13.80
2022-09-21T17:40:43.692Z,13.80
2022-09-21T17:43:34.304Z,13.70
2022-09-21T17:46:09.074Z,13.70
2022-09-21T17:48:41.200Z,13.70
2022-09-21T17:51:10.894Z,13.70
2022-09-21T17:53:39.178Z,13.70
2022-09-21T17:56:23.405Z,13.70
2022-09-21T17:58:58.047Z,13.80
2022-09-21T18:01:33.847Z,13.80
2022-09-21T18:04:05.170Z,13.90
2022-09-21T18:06:34.871Z,13.90
2022-09-21T18:09:04.045Z,13.90
2022-09-21T18:12:17.542Z,14.00
2022-09-21T18:14:55.742Z,14.00
2022-09-21T18:17:40.630Z,14.10
2022-09-21T18:20:23.646Z,14.10
2022-09-21T18:22:59.534Z,14.10
2022-09-21T18:25:32.517Z,14.00
2022-09-21T18:28:08.059Z,14.00
2022-09-21T18:30:41.270Z,14.00
2022-09-21T18:33:21.039Z,13.90
2022-09-21T18:36:01.615Z,13.90
2022-09-21T18:38:36.481Z,13.80
2022-09-21T18:41:23.192Z,13.80
2022-09-21T18:44:05.373Z,13.70
2022-09-21T18:46:43.697Z,13.70
2022-09-21T18:49:19.195Z,13.60
2022-09-21T18:51:55.211Z,13.60
2022-09-21T18:54:25.645Z,13.60
2022-09-21T18:56:55.459Z,13.50
2022-09-21T18:59:27.340Z,13.50
2022-09-21T19:01:59.270Z,13.40
2022-09-21T19:04:29.952Z,13.40
2022-09-21T19:07:08.639Z,13.40
2022-09-21T19:09:45.493Z,13.40
2022-09-21T19:12:25.306Z,13.30
2022-09-21T19:15:10.169Z,13.30
2022-09-21T19:17:58.550Z,13.30
2022-09-21T19:20:38.268Z,13.20
2022-09-21T19:23:16.683Z,13.30
2022-09-21T19:25:49.934Z,13.20
2022-09-21T19:28:54.516Z,13.20
2022-09-21T19:31:23.087Z,13.20
2022-09-21T19:33:52.161Z,13.20
2022-09-21T19:36:21.167Z,13.20
2022-09-21T19:38:51.727Z,13.20
2022-09-21T19:41:35.105Z,13.20
2022-09-21T19:44:18.564Z,13.20
2022-09-21T19:46:58.068Z,13.10
2022-09-21T19:49:35.817Z,13.10
2022-09-21T19:52:06.622Z,13.10
2022-09-21T19:54:53.677Z,13.10
2022-09-21T19:57:41.372Z,13.00
2022-09-21T20:00:13.778Z,13.00
2022-09-21T20:02:49.998Z,12.90
2022-09-21T20:05:23.336Z,12.90
2022-09-21T20:07:59.279Z,12.80
2022-09-21T20:10:43.402Z,12.70
2022-09-21T20:13:21.820Z,12.70
2022-09-21T20:15:56.980Z,12.60
2022-09-21T20:18:32.119Z,12.50
2022-09-21T20:21:00.832Z,12.40
2022-09-21T20:23:30.305Z,12.30
2022-09-21T20:26:05.204Z,12.20
2022-09-21T20:28:34.774Z,12.10
2022-09-21T20:31:04.279Z,12.00
2022-09-21T20:33:32.827Z,11.90
2022-09-21T20:36:02.504Z,11.90
2022-09-21T20:38:31.291Z,11.80
2022-09-21T20:41:01.214Z,11.70
2022-09-21T20:43:32.623Z,11.70
2022-09-21T20:46:03.479Z,11.60
2022-09-21T20:48:32.183Z,11.60
2022-09-21T20:51:06.203Z,11.50
2022-09-21T20:53:35.058Z,11.50
2022-09-21T20:56:05.172Z,11.40
2022-09-21T20:58:35.750Z,11.40
2022-09-21T21:01:05.466Z,11.30
2022-09-21T21:03:34.317Z,11.30
2022-09-21T21:06:11.022Z,11.20
2022-09-21T21:08:40.313Z,11.20
2022-09-21T21:11:11.515Z,11.10
2022-09-21T21:13:40.089Z,11.10
2022-09-21T21:16:12.112Z,11.00
2022-09-21T21:18:41.557Z,11.00
2022-09-21T21:21:11.189Z,10.90
2022-09-21T21:23:53.632Z,10.90
2022-09-21T21:26:38.271Z,10.80
2022-09-21T21:29:12.353Z,10.80
2022-09-21T21:31:40.999Z,10.70
2022-09-21T21:34:09.675Z,10.70
2022-09-21T21:36:37.977Z,10.60
2022-09-21T21:39:06.800Z,10.60
2022-09-21T21:41:37.004Z,10.60
2022-09-21T21:44:05.483Z,10.60
2022-09-21T21:46:34.167Z,10.50
2022-09-21T21:49:02.602Z,10.40
2022-09-21T21:51:31.214Z,10.40
2022-09-21T21:54:00.015Z,10.40
2022-09-21T21:56:29.709Z,10.20
2022-09-21T21:58:59.379Z,10.30
2022-09-21T22:01:29.544Z,10.30
2022-09-21T22:03:59.620Z,10.20
2022-09-21T22:06:29.333Z,10.20
2022-09-21T22:08:58.808Z,10.10
2022-09-21T22:11:29.080Z,10.10
2022-09-21T22:13:58.500Z,10.00
2022-09-21T22:16:29.868Z,10.00
2022-09-21T22:18:59.248Z,10.00
2022-09-21T22:21:29.789Z,9.90
2022-09-21T22:24:00.305Z,9.90
2022-09-21T22:26:30.408Z,9.80
2022-09-21T22:29:02.071Z,9.80
2022-09-21T22:31:34.123Z,9.70
2022-09-21T22:34:02.685Z,9.70
2022-09-21T22:36:33.163Z,9.70
2022-09-21T22:39:02.032Z,9.70
2022-09-21T22:41:32.852Z,9.60
2022-09-21T22:44:01.304Z,9.60
2022-09-21T22:46:32.486Z,9.60
2022-09-21T22:49:01.449Z,9.50
2022-09-21T22:51:31.022Z,9.50
2022-09-21T22:53:59.815Z,9.50
2022-09-21T22:56:30.404Z,9.40
2022-09-21T22:59:00.261Z,9.40
2022-09-21T23:01:30.875Z,9.40
2022-09-21T23:04:02.414Z,9.40
2022-09-21T23:06:34.881Z,9.30
2022-09-21T23:09:06.531Z,9.30
2022-09-21T23:11:37.114Z,9.30
2022-09-21T23:14:06.278Z,9.30
2022-09-21T23:16:34.916Z,9.30
2022-09-21T23:19:05.290Z,9.20
2022-09-21T23:21:33.707Z,9.20
2022-09-21T23:24:05.463Z,9.20
2022-09-21T23:26:34.704Z,9.20
2022-09-21T23:29:05.323Z,9.20
2022-09-21T23:31:33.960Z,9.20
2022-09-21T23:34:08.648Z,9.20
2022-09-21T23:36:37.853Z,9.10
2022-09-21T23:39:08.498Z,9.10
2022-09-21T23:41:37.896Z,9.10
2022-09-21T23:44:07.751Z,9.10
2022-09-21T23:46:38.201Z,9.10
2022-09-21T23:49:08.280Z,9.00
2022-09-21T23:51:37.018Z,9.00
2022-09-21T23:54:05.762Z,9.00
2022-09-21T23:56:34.642Z,8.90
2022-09-21T23:59:03.542Z,8.80
